createdAt,value
2018-04-25T00:00:10.292Z,0.00
2018-04-25T00:01:10.325Z,0.00
2018-04-25T00:02:10.277Z,0.00
2018-04-25T00:03:10.272Z,0.00
2018-04-25T00:04:10.264Z,0.00
2018-04-25T00:05:10.258Z,0.00
2018-04-25T00:06:10.251Z,0.00
2018-04-25T00:07:10.244Z,0.00
2018-04-25T00:08:11.889Z,0.00
2018-04-25T00:09:10.229Z,0.00
2018-04-25T00:10:10.223Z,0.00
2018-04-25T00:11:10.216Z,0.00
2018-04-25T00:12:10.209Z,0.00
2018-04-25T00:13:10.201Z,0.00
2018-04-25T00:14:10.194Z,0.00
2018-04-25T00:15:10.187Z,0.00
2018-04-25T00:16:10.186Z,0.00
2018-04-25T00:17:10.174Z,0.00
2018-04-25T00:18:10.169Z,0.00
2018-04-25T00:19:10.161Z,0.00
2018-04-25T00:20:10.154Z,0.00
2018-04-25T00:21:10.145Z,0.00
2018-04-25T00:22:10.139Z,0.00
2018-04-25T00:23:10.132Z,0.00
2018-04-25T00:24:10.126Z,0.00
2018-04-25T00:25:10.118Z,0.00
2018-04-25T00:26:11.663Z,0.00
2018-04-25T00:27:10.105Z,0.00
2018-04-25T00:28:10.097Z,0.00
2018-04-25T00:29:10.090Z,0.00
2018-04-25T00:30:10.083Z,0.00
2018-04-25T00:31:10.076Z,0.00
2018-04-25T00:32:13.974Z,0.00
2018-04-25T00:33:10.063Z,0.00
2018-04-25T00:34:10.055Z,0.00
2018-04-25T00:35:10.050Z,0.00
2018-04-25T00:36:10.041Z,0.00
2018-04-25T00:37:10.034Z,0.00
2018-04-25T00:38:10.027Z,0.00
2018-04-25T00:39:10.023Z,0.00
2018-04-25T00:40:10.014Z,0.00
2018-04-25T00:41:10.006Z,0.00
2018-04-25T00:42:09.999Z,0.00
2018-04-25T00:43:09.992Z,0.00
2018-04-25T00:44:12.288Z,0.00
2018-04-25T00:45:09.979Z,0.00
2018-04-25T00:46:09.971Z,0.00
2018-04-25T00:47:09.965Z,0.00
2018-04-25T00:48:09.958Z,0.00
2018-04-25T00:49:09.950Z,0.00
2018-04-25T00:50:10.699Z,0.00
2018-04-25T00:51:09.938Z,0.00
2018-04-25T00:52:09.931Z,0.00
2018-04-25T00:53:09.922Z,0.00
2018-04-25T00:54:09.915Z,0.00
2018-04-25T00:55:09.910Z,0.00
2018-04-25T00:56:09.903Z,0.00
2018-04-25T00:57:09.896Z,0.00
2018-04-25T00:58:09.888Z,0.00
2018-04-25T00:59:09.881Z,0.00
2018-04-25T01:00:09.875Z,0.00
2018-04-25T01:01:09.870Z,0.00
2018-04-25T01:02:12.163Z,0.00
2018-04-25T01:03:09.853Z,0.00
2018-04-25T01:04:09.848Z,0.00
2018-04-25T01:05:09.839Z,0.00
2018-04-25T01:06:09.832Z,0.00
2018-04-25T01:07:09.826Z,0.00
2018-04-25T01:08:09.820Z,0.00
2018-04-25T01:09:09.812Z,0.00
2018-04-25T01:10:09.805Z,0.00
2018-04-25T01:11:09.798Z,0.00
2018-04-25T01:12:09.792Z,0.00
2018-04-25T01:13:09.784Z,0.00
2018-04-25T01:14:12.136Z,0.00
2018-04-25T01:15:09.770Z,0.00
2018-04-25T01:16:09.764Z,0.00
2018-04-25T01:17:09.758Z,0.00
2018-04-25T01:18:09.750Z,0.00
2018-04-25T01:19:09.745Z,0.00
2018-04-25T01:20:10.538Z,0.00
2018-04-25T01:21:09.729Z,0.00
2018-04-25T01:22:09.722Z,0.00
2018-04-25T01:23:09.718Z,0.00
2018-04-25T01:24:09.711Z,0.00
2018-04-25T01:25:09.703Z,0.00
2018-04-25T01:26:09.695Z,0.00
2018-04-25T01:27:09.689Z,0.00
2018-04-25T01:28:09.686Z,0.00
2018-04-25T01:29:09.674Z,0.00
2018-04-25T01:30:09.668Z,0.00
2018-04-25T01:31:09.661Z,0.00
2018-04-25T01:32:11.206Z,0.00
2018-04-25T01:33:09.648Z,0.00
2018-04-25T01:34:09.640Z,0.00
2018-04-25T01:35:09.634Z,0.00
2018-04-25T01:36:09.627Z,0.00
2018-04-25T01:37:09.620Z,0.00
2018-04-25T01:38:09.613Z,0.00
2018-04-25T01:39:09.608Z,0.00
2018-04-25T01:40:09.603Z,0.00
2018-04-25T01:41:09.593Z,0.00
2018-04-25T01:42:09.590Z,0.00
2018-04-25T01:43:09.580Z,0.00
2018-04-25T01:44:09.573Z,0.00
2018-04-25T01:45:09.566Z,0.00
2018-04-25T01:46:09.563Z,0.00
2018-04-25T01:47:09.553Z,0.00
2018-04-25T01:48:09.547Z,0.00
2018-04-25T01:49:09.539Z,0.00
2018-04-25T01:50:10.283Z,0.00
2018-04-25T01:51:09.526Z,0.00
2018-04-25T01:52:09.523Z,0.00
2018-04-25T01:53:09.511Z,0.00
2018-04-25T01:54:09.506Z,0.00
2018-04-25T01:55:09.499Z,0.00
2018-04-25T01:56:10.245Z,0.00
2018-04-25T01:57:09.484Z,0.00
2018-04-25T01:58:09.478Z,0.00
2018-04-25T01:59:09.472Z,0.00
2018-04-25T02:00:09.464Z,0.00
2018-04-25T02:01:09.456Z,0.00
2018-04-25T02:02:09.450Z,0.00
2018-04-25T02:03:09.444Z,0.00
2018-04-25T02:04:09.437Z,0.00
2018-04-25T02:05:09.429Z,0.00
2018-04-25T02:06:09.423Z,0.00
2018-04-25T02:07:09.417Z,0.00
2018-04-25T02:08:10.160Z,0.00
2018-04-25T02:09:09.402Z,0.00
2018-04-25T02:10:09.394Z,0.00
2018-04-25T02:11:09.388Z,0.00
2018-04-25T02:12:09.381Z,0.00
2018-04-25T02:13:09.374Z,0.00
2018-04-25T02:14:09.367Z,0.00
2018-04-25T02:15:09.361Z,0.00
2018-04-25T02:16:09.359Z,0.00
2018-04-25T02:17:09.348Z,0.00
2018-04-25T02:18:09.340Z,0.00
2018-04-25T02:19:09.334Z,0.00
2018-04-25T02:20:09.325Z,0.00
2018-04-25T02:21:09.318Z,0.00
2018-04-25T02:22:09.312Z,0.00
2018-04-25T02:23:09.304Z,0.00
2018-04-25T02:24:09.297Z,0.00
2018-04-25T02:25:09.291Z,0.00
2018-04-25T02:26:10.034Z,0.00
2018-04-25T02:27:09.276Z,0.00
2018-04-25T02:28:09.270Z,0.00
2018-04-25T02:29:09.261Z,0.00
2018-04-25T02:30:09.255Z,0.00
2018-04-25T02:31:09.247Z,0.00
2018-04-25T02:32:10.798Z,0.00
2018-04-25T02:33:09.234Z,0.00
2018-04-25T02:34:09.227Z,0.00
2018-04-25T02:35:09.219Z,0.00
2018-04-25T02:36:09.216Z,0.00
2018-04-25T02:37:09.209Z,0.00
2018-04-25T02:38:09.200Z,0.00
2018-04-25T02:39:09.195Z,0.00
2018-04-25T02:40:09.183Z,0.00
2018-04-25T02:41:09.175Z,0.00
2018-04-25T02:42:09.168Z,0.00
2018-04-25T02:43:09.162Z,0.00
2018-04-25T02:44:09.156Z,0.00
2018-04-25T02:45:09.146Z,0.00
2018-04-25T02:46:09.140Z,0.00
2018-04-25T02:47:09.133Z,0.00
2018-04-25T02:48:09.127Z,0.00
2018-04-25T02:49:09.118Z,0.00
2018-04-25T02:50:09.111Z,0.00
2018-04-25T02:51:09.105Z,0.00
2018-04-25T02:52:09.097Z,0.00
2018-04-25T02:53:09.089Z,0.00
2018-04-25T02:54:09.083Z,0.00
2018-04-25T02:55:09.076Z,0.00
2018-04-25T02:56:09.823Z,0.00
2018-04-25T02:57:09.059Z,0.00
2018-04-25T02:58:09.053Z,0.00
2018-04-25T02:59:09.045Z,0.00
2018-04-25T03:00:09.042Z,0.00
2018-04-25T03:01:09.031Z,0.00
2018-04-25T03:02:09.025Z,0.00
2018-04-25T03:03:09.018Z,0.00
2018-04-25T03:04:09.010Z,0.00
2018-04-25T03:05:09.002Z,0.00
2018-04-25T03:06:08.995Z,0.00
2018-04-25T03:07:08.991Z,0.00
2018-04-25T03:08:12.134Z,0.00
2018-04-25T03:09:08.973Z,0.00
2018-04-25T03:10:08.965Z,0.00
2018-04-25T03:11:08.959Z,0.00
2018-04-25T03:12:08.952Z,0.00
2018-04-25T03:13:08.945Z,0.00
2018-04-25T03:14:10.488Z,0.00
2018-04-25T03:15:08.929Z,0.00
2018-04-25T03:16:08.922Z,0.00
2018-04-25T03:17:08.914Z,0.00
2018-04-25T03:18:08.907Z,0.00
2018-04-25T03:19:08.900Z,0.00
2018-04-25T03:20:09.694Z,0.00
2018-04-25T03:21:08.885Z,0.00
2018-04-25T03:22:08.878Z,0.00
2018-04-25T03:23:08.871Z,0.00
2018-04-25T03:24:08.865Z,0.00
2018-04-25T03:25:08.856Z,0.00
2018-04-25T03:26:09.649Z,0.00
2018-04-25T03:27:08.841Z,0.00
2018-04-25T03:28:08.834Z,0.00
2018-04-25T03:29:08.827Z,0.00
2018-04-25T03:30:08.819Z,0.00
2018-04-25T03:31:08.812Z,0.00
2018-04-25T03:32:08.805Z,0.00
2018-04-25T03:33:08.797Z,0.00
2018-04-25T03:34:08.790Z,0.00
2018-04-25T03:35:08.782Z,0.00
2018-04-25T03:36:08.775Z,0.00
2018-04-25T03:37:08.767Z,0.00
2018-04-25T03:38:10.313Z,0.00
2018-04-25T03:39:08.753Z,0.00
2018-04-25T03:40:08.750Z,0.00
2018-04-25T03:41:08.827Z,0.00
2018-04-25T03:42:08.730Z,0.00
2018-04-25T03:43:08.724Z,0.00
2018-04-25T03:44:11.774Z,0.00
2018-04-25T03:45:08.709Z,0.00
2018-04-25T03:46:08.702Z,0.00
2018-04-25T03:47:08.696Z,0.00
2018-04-25T03:48:08.688Z,0.00
2018-04-25T03:49:08.680Z,0.00
2018-04-25T03:50:08.673Z,0.00
2018-04-25T03:51:08.667Z,0.00
2018-04-25T03:52:08.660Z,4.00
2018-04-25T03:53:08.651Z,4.00
2018-04-25T03:54:08.645Z,4.00
2018-04-25T03:55:08.636Z,4.00
2018-04-25T03:56:08.630Z,0.00
2018-04-25T03:57:08.621Z,0.00
2018-04-25T03:58:08.614Z,4.00
2018-04-25T03:59:08.646Z,4.00
2018-04-25T04:00:08.600Z,4.00
2018-04-25T04:01:08.591Z,4.00
2018-04-25T04:02:10.941Z,4.00
2018-04-25T04:03:08.578Z,4.00
2018-04-25T04:04:08.571Z,4.00
2018-04-25T04:05:08.563Z,4.00
2018-04-25T04:06:08.555Z,4.00
2018-04-25T04:07:08.548Z,4.00
2018-04-25T04:08:09.342Z,4.00
2018-04-25T04:09:08.533Z,8.00
2018-04-25T04:10:08.526Z,8.00
2018-04-25T04:11:08.520Z,8.00
2018-04-25T04:12:08.512Z,12.00
2018-04-25T04:13:08.504Z,16.00
2018-04-25T04:14:08.497Z,16.00
2018-04-25T04:15:08.489Z,16.00
2018-04-25T04:16:08.483Z,16.00
2018-04-25T04:17:08.474Z,20.00
2018-04-25T04:18:08.468Z,32.00
2018-04-25T04:19:08.461Z,44.00
2018-04-25T04:20:10.806Z,36.00
2018-04-25T04:21:08.445Z,28.00
2018-04-25T04:22:08.437Z,32.00
2018-04-25T04:23:08.431Z,36.00
2018-04-25T04:24:08.423Z,60.00
2018-04-25T04:25:08.421Z,68.00
2018-04-25T04:26:08.407Z,56.00
2018-04-25T04:27:08.400Z,48.00
2018-04-25T04:28:08.394Z,48.00
2018-04-25T04:29:08.384Z,56.00
2018-04-25T04:30:08.378Z,68.00
2018-04-25T04:31:08.371Z,104.00
2018-04-25T04:32:08.364Z,136.00
2018-04-25T04:33:08.356Z,152.00
2018-04-25T04:34:08.354Z,124.00
2018-04-25T04:35:08.341Z,88.00
2018-04-25T04:36:08.334Z,104.00
2018-04-25T04:37:08.331Z,108.00
2018-04-25T04:38:09.925Z,120.00
2018-04-25T04:39:08.312Z,212.00
2018-04-25T04:40:08.304Z,180.00
2018-04-25T04:41:08.297Z,168.00
2018-04-25T04:42:08.289Z,208.00
2018-04-25T04:43:08.335Z,176.00
2018-04-25T04:44:08.274Z,160.00
2018-04-25T04:45:08.267Z,128.00
2018-04-25T04:46:08.259Z,116.00
2018-04-25T04:47:08.254Z,104.00
2018-04-25T04:48:08.247Z,148.00
2018-04-25T04:49:08.237Z,196.00
2018-04-25T04:50:08.981Z,284.00
2018-04-25T04:51:08.225Z,336.00
2018-04-25T04:52:08.215Z,372.00
2018-04-25T04:53:08.207Z,448.00
2018-04-25T04:54:08.200Z,388.00
2018-04-25T04:55:08.193Z,392.00
2018-04-25T04:56:09.037Z,288.00
2018-04-25T04:57:08.179Z,284.00
2018-04-25T04:58:08.171Z,312.00
2018-04-25T04:59:08.164Z,404.00
2018-04-25T05:00:08.158Z,356.00
2018-04-25T05:01:08.148Z,356.00
2018-04-25T05:02:08.140Z,428.00
2018-04-25T05:03:08.134Z,516.00
2018-04-25T05:04:08.132Z,548.00
2018-04-25T05:05:08.123Z,496.00
2018-04-25T05:06:08.113Z,616.00
2018-04-25T05:07:08.103Z,604.00
2018-04-25T05:08:08.848Z,640.00
2018-04-25T05:09:08.090Z,740.00
2018-04-25T05:10:08.081Z,784.00
2018-04-25T05:11:08.075Z,800.00
2018-04-25T05:12:08.068Z,780.00
2018-04-25T05:13:08.091Z,684.00
2018-04-25T05:14:10.404Z,720.00
2018-04-25T05:15:08.045Z,784.00
2018-04-25T05:16:08.038Z,848.00
2018-04-25T05:17:08.029Z,756.00
2018-04-25T05:18:08.023Z,704.00
2018-04-25T05:19:08.015Z,768.00
2018-04-25T05:20:09.560Z,804.00
2018-04-25T05:21:07.999Z,920.00
2018-04-25T05:22:07.991Z,812.00
2018-04-25T05:23:07.985Z,756.00
2018-04-25T05:24:07.977Z,840.00
2018-04-25T05:25:07.969Z,1076.00
2018-04-25T05:26:08.763Z,1128.00
2018-04-25T05:27:07.955Z,1164.00
2018-04-25T05:28:07.948Z,1140.00
2018-04-25T05:29:07.940Z,1032.00
2018-04-25T05:30:07.930Z,1024.00
2018-04-25T05:31:07.932Z,924.00
2018-04-25T05:32:08.735Z,1740.00
2018-04-25T05:33:07.907Z,1176.00
2018-04-25T05:34:07.899Z,1148.00
2018-04-25T05:35:07.891Z,1144.00
2018-04-25T05:36:07.884Z,1344.00
2018-04-25T05:37:07.874Z,684.00
2018-04-25T05:38:07.873Z,1220.00
2018-04-25T05:39:07.857Z,1420.00
2018-04-25T05:40:07.849Z,1096.00
2018-04-25T05:41:07.840Z,1376.00
2018-04-25T05:42:07.833Z,1344.00
2018-04-25T05:43:07.823Z,924.00
2018-04-25T05:44:07.816Z,1048.00
2018-04-25T05:45:07.806Z,1484.00
2018-04-25T05:46:07.798Z,1580.00
2018-04-25T05:47:07.790Z,1592.00
2018-04-25T05:48:07.780Z,1548.00
2018-04-25T05:49:07.772Z,2228.00
2018-04-25T05:50:11.718Z,2560.00
2018-04-25T05:51:07.754Z,2632.00
2018-04-25T05:52:07.746Z,2052.00
2018-04-25T05:53:07.736Z,1536.00
2018-04-25T05:54:07.728Z,1424.00
2018-04-25T05:55:07.719Z,1440.00
2018-04-25T05:56:08.460Z,1616.00
2018-04-25T05:57:07.701Z,2164.00
2018-04-25T05:58:07.692Z,2792.00
2018-04-25T05:59:07.685Z,2820.00
2018-04-25T06:00:07.676Z,3016.00
2018-04-25T06:01:07.666Z,3128.00
2018-04-25T06:02:07.658Z,3468.00
2018-04-25T06:03:07.649Z,3772.00
2018-04-25T06:04:07.641Z,3412.00
2018-04-25T06:05:07.630Z,3024.00
2018-04-25T06:06:07.622Z,2696.00
2018-04-25T06:07:07.621Z,2356.00
2018-04-25T06:08:08.356Z,2380.00
2018-04-25T06:09:07.596Z,2844.00
2018-04-25T06:10:07.588Z,3192.00
2018-04-25T06:11:07.581Z,3124.00
2018-04-25T06:12:07.582Z,3268.00
2018-04-25T06:13:07.563Z,2240.00
2018-04-25T06:14:09.906Z,2760.00
2018-04-25T06:15:07.545Z,3596.00
2018-04-25T06:16:07.540Z,3368.00
2018-04-25T06:17:07.531Z,3380.00
2018-04-25T06:18:07.521Z,3080.00
2018-04-25T06:19:07.513Z,3900.00
2018-04-25T06:20:08.377Z,4820.00
2018-04-25T06:21:07.495Z,4560.00
2018-04-25T06:22:07.487Z,4024.00
2018-04-25T06:23:07.478Z,3788.00
2018-04-25T06:24:07.469Z,3600.00
2018-04-25T06:25:07.463Z,3792.00
2018-04-25T06:26:08.955Z,3684.00
2018-04-25T06:27:07.448Z,4880.00
2018-04-25T06:28:07.515Z,5004.00
2018-04-25T06:29:07.427Z,6424.00
2018-04-25T06:30:07.420Z,6652.00
2018-04-25T06:31:07.410Z,6724.00
2018-04-25T06:32:07.402Z,5908.00
2018-04-25T06:33:07.393Z,5276.00
2018-04-25T06:34:07.387Z,4820.00
2018-04-25T06:35:07.379Z,3872.00
2018-04-25T06:36:07.370Z,4176.00
2018-04-25T06:37:07.361Z,3020.00
2018-04-25T06:38:08.105Z,2568.00
2018-04-25T06:39:07.344Z,2272.00
2018-04-25T06:40:07.337Z,2640.00
2018-04-25T06:41:07.328Z,1672.00
2018-04-25T06:42:07.320Z,1568.00
2018-04-25T06:43:07.311Z,1728.00
2018-04-25T06:44:07.303Z,1708.00
2018-04-25T06:45:07.431Z,2656.00
2018-04-25T06:46:07.290Z,5024.00
2018-04-25T06:47:07.277Z,3744.00
2018-04-25T06:48:07.268Z,2500.00
2018-04-25T06:49:07.263Z,2224.00
2018-04-25T06:50:08.002Z,2408.00
2018-04-25T06:51:07.244Z,4324.00
2018-04-25T06:52:07.235Z,4276.00
2018-04-25T06:53:07.230Z,5156.00
2018-04-25T06:54:07.218Z,5308.00
2018-04-25T06:55:07.209Z,6800.00
2018-04-25T06:56:08.803Z,7784.00
2018-04-25T06:57:07.192Z,8248.00
2018-04-25T06:58:07.184Z,8516.00
2018-04-25T06:59:07.177Z,6368.00
2018-04-25T07:00:07.168Z,4540.00
2018-04-25T07:01:07.164Z,5464.00
2018-04-25T07:02:07.157Z,5760.00
2018-04-25T07:03:07.144Z,4884.00
2018-04-25T07:04:07.142Z,5196.00
2018-04-25T07:05:07.132Z,5316.00
2018-04-25T07:06:07.122Z,5124.00
2018-04-25T07:07:07.113Z,6492.00
2018-04-25T07:08:08.704Z,9656.00
2018-04-25T07:09:07.098Z,10408.00
2018-04-25T07:10:07.089Z,12072.00
2018-04-25T07:11:07.081Z,13616.00
2018-04-25T07:12:07.075Z,11360.00
2018-04-25T07:13:07.065Z,11716.00
2018-04-25T07:14:07.075Z,12104.00
2018-04-25T07:15:07.054Z,10616.00
2018-04-25T07:16:07.044Z,13024.00
2018-04-25T07:17:07.035Z,14596.00
2018-04-25T07:18:07.029Z,10488.00
2018-04-25T07:19:07.023Z,14768.00
2018-04-25T07:20:07.115Z,17440.00
2018-04-25T07:21:07.008Z,34400.00
2018-04-25T07:22:07.004Z,20608.00
2018-04-25T07:23:06.996Z,30560.00
2018-04-25T07:24:06.988Z,16036.00
2018-04-25T07:25:06.981Z,18720.00
2018-04-25T07:26:07.724Z,16284.00
2018-04-25T07:27:06.967Z,17920.00
2018-04-25T07:28:06.961Z,20480.00
2018-04-25T07:29:06.955Z,21056.00
2018-04-25T07:30:06.949Z,30176.00
2018-04-25T07:31:06.944Z,12344.00
2018-04-25T07:32:06.938Z,12528.00
2018-04-25T07:33:06.931Z,13584.00
2018-04-25T07:34:06.928Z,19744.00
2018-04-25T07:35:06.920Z,28000.00
2018-04-25T07:36:06.914Z,18176.00
2018-04-25T07:37:06.908Z,35552.00
2018-04-25T07:38:07.703Z,35296.00
2018-04-25T07:39:06.898Z,32256.00
2018-04-25T07:40:06.971Z,30720.00
2018-04-25T07:41:06.887Z,41632.00
2018-04-25T07:42:06.882Z,17376.00
2018-04-25T07:43:06.878Z,59520.00
2018-04-25T07:44:06.874Z,58144.00
2018-04-25T07:45:06.870Z,24384.00
2018-04-25T07:46:06.866Z,22304.00
2018-04-25T07:47:06.864Z,64544.00
2018-04-25T07:48:06.862Z,27488.00
2018-04-25T07:49:06.857Z,59136.00
2018-04-25T07:50:08.407Z,38976.00
2018-04-25T07:51:06.858Z,43648.00
2018-04-25T07:52:06.902Z,25632.00
2018-04-25T07:53:06.849Z,36512.00
2018-04-25T07:54:06.844Z,17728.00
2018-04-25T07:55:06.840Z,22272.00
2018-04-25T07:56:09.194Z,39744.00
2018-04-25T07:57:06.835Z,43104.00
2018-04-25T07:58:06.830Z,27840.00
2018-04-25T07:59:06.827Z,56032.00
2018-04-25T08:00:06.826Z,66016.00
2018-04-25T08:01:06.823Z,31808.00
2018-04-25T08:02:06.820Z,27168.00
2018-04-25T08:03:06.818Z,65728.00
2018-04-25T08:04:06.817Z,75008.00
2018-04-25T08:05:06.813Z,85152.00
2018-04-25T08:06:06.811Z,90080.00
2018-04-25T08:07:06.811Z,31040.00
2018-04-25T08:08:06.809Z,103904.00
2018-04-25T08:09:06.807Z,69984.00
2018-04-25T08:10:06.809Z,33504.00
2018-04-25T08:11:06.807Z,27648.00
2018-04-25T08:12:06.807Z,52192.00
2018-04-25T08:13:06.805Z,48800.00
2018-04-25T08:14:06.806Z,68032.00
2018-04-25T08:15:06.806Z,71360.00
2018-04-25T08:16:06.806Z,34464.00
2018-04-25T08:17:06.807Z,93216.00
2018-04-25T08:18:06.808Z,93664.00
2018-04-25T08:19:06.808Z,22400.00
2018-04-25T08:20:06.810Z,23232.00
2018-04-25T08:21:06.810Z,26272.00
2018-04-25T08:22:06.809Z,91104.00
2018-04-25T08:23:06.809Z,86400.00
2018-04-25T08:24:06.815Z,18240.00
2018-04-25T08:25:06.811Z,86048.00
2018-04-25T08:26:07.563Z,26560.00
2018-04-25T08:27:06.814Z,86688.00
2018-04-25T08:28:06.816Z,93792.00
2018-04-25T08:29:06.818Z,63200.00
2018-04-25T08:30:06.819Z,92032.00
2018-04-25T08:31:06.822Z,89280.00
2018-04-25T08:32:07.733Z,81888.00
2018-04-25T08:33:06.828Z,37792.00
2018-04-25T08:34:06.834Z,88096.00
2018-04-25T08:35:06.838Z,84352.00
2018-04-25T08:36:06.840Z,84544.00
2018-04-25T08:37:06.844Z,84928.00
2018-04-25T08:38:06.848Z,86176.00
2018-04-25T08:39:06.853Z,86304.00
2018-04-25T08:40:06.858Z,86240.00
2018-04-25T08:41:06.862Z,80128.00
2018-04-25T08:42:06.867Z,86912.00
2018-04-25T08:43:06.872Z,88928.00
2018-04-25T08:44:06.879Z,84512.00
2018-04-25T08:45:06.935Z,86368.00
2018-04-25T08:46:06.891Z,85152.00
2018-04-25T08:47:06.895Z,86624.00
2018-04-25T08:48:06.899Z,85696.00
2018-04-25T08:49:06.903Z,84128.00
2018-04-25T08:50:08.612Z,92480.00
2018-04-25T08:51:06.918Z,53408.00
2018-04-25T08:52:06.924Z,50464.00
2018-04-25T08:53:06.929Z,87168.00
2018-04-25T08:54:06.937Z,81280.00
2018-04-25T08:55:06.941Z,73216.00
2018-04-25T08:56:08.499Z,98688.00
2018-04-25T08:57:06.953Z,18720.00
2018-04-25T08:58:06.958Z,13968.00
2018-04-25T08:59:06.966Z,12252.00
2018-04-25T09:00:06.969Z,11300.00
2018-04-25T09:01:06.972Z,11940.00
2018-04-25T09:02:06.975Z,9440.00
2018-04-25T09:03:06.978Z,9932.00
2018-04-25T09:04:06.983Z,9920.00
2018-04-25T09:05:06.982Z,8296.00
2018-04-25T09:06:06.982Z,7232.00
2018-04-25T09:07:06.983Z,8160.00
2018-04-25T09:08:08.534Z,26720.00
2018-04-25T09:09:06.982Z,22816.00
2018-04-25T09:10:06.983Z,87200.00
2018-04-25T09:11:06.982Z,72448.00
2018-04-25T09:12:06.982Z,89344.00
2018-04-25T09:13:06.986Z,89312.00
2018-04-25T09:14:06.985Z,85344.00
2018-04-25T09:15:06.988Z,81792.00
2018-04-25T09:16:06.991Z,82272.00
2018-04-25T09:17:06.994Z,28608.00
2018-04-25T09:18:06.999Z,36672.00
2018-04-25T09:19:07.003Z,27712.00
2018-04-25T09:20:07.007Z,83040.00
2018-04-25T09:21:07.010Z,82816.00
2018-04-25T09:22:07.014Z,79136.00
2018-04-25T09:23:07.020Z,34176.00
2018-04-25T09:24:07.032Z,65280.00
2018-04-25T09:25:07.027Z,78336.00
2018-04-25T09:26:07.132Z,18464.00
2018-04-25T09:27:07.039Z,90112.00
2018-04-25T09:28:07.043Z,84768.00
2018-04-25T09:29:07.052Z,85376.00
2018-04-25T09:30:07.054Z,17088.00
2018-04-25T09:31:07.059Z,14320.00
2018-04-25T09:32:07.064Z,24352.00
2018-04-25T09:33:07.069Z,43168.00
2018-04-25T09:34:07.074Z,59520.00
2018-04-25T09:35:07.075Z,84896.00
2018-04-25T09:36:07.077Z,103232.00
2018-04-25T09:37:07.083Z,103616.00
2018-04-25T09:38:07.084Z,26336.00
2018-04-25T09:39:07.090Z,14880.00
2018-04-25T09:40:07.096Z,8992.00
2018-04-25T09:41:07.094Z,7100.00
2018-04-25T09:42:07.098Z,7768.00
2018-04-25T09:43:07.099Z,7288.00
2018-04-25T09:44:07.852Z,8352.00
2018-04-25T09:45:07.100Z,11384.00
2018-04-25T09:46:07.101Z,14164.00
2018-04-25T09:47:07.102Z,11088.00
2018-04-25T09:48:07.101Z,10500.00
2018-04-25T09:49:07.098Z,20384.00
2018-04-25T09:50:08.653Z,8112.00
2018-04-25T09:51:07.097Z,6828.00
2018-04-25T09:52:07.095Z,7396.00
2018-04-25T09:53:07.097Z,7792.00
2018-04-25T09:54:07.091Z,6352.00
2018-04-25T09:55:07.090Z,4740.00
2018-04-25T09:56:07.086Z,3892.00
2018-04-25T09:57:07.084Z,4056.00
2018-04-25T09:58:07.162Z,4508.00
2018-04-25T09:59:07.076Z,5256.00
2018-04-25T10:00:07.072Z,6384.00
2018-04-25T10:01:07.068Z,6584.00
2018-04-25T10:02:07.917Z,6524.00
2018-04-25T10:03:07.059Z,5864.00
2018-04-25T10:04:07.100Z,5024.00
2018-04-25T10:05:07.049Z,5880.00
2018-04-25T10:06:07.045Z,20480.00
2018-04-25T10:07:07.040Z,14944.00
2018-04-25T10:08:07.035Z,15460.00
2018-04-25T10:09:07.032Z,91936.00
2018-04-25T10:10:07.028Z,101920.00
2018-04-25T10:11:07.023Z,32288.00
2018-04-25T10:12:07.021Z,16412.00
2018-04-25T10:13:07.017Z,12956.00
2018-04-25T10:14:07.017Z,13308.00
2018-04-25T10:15:07.015Z,14812.00
2018-04-25T10:16:07.010Z,15724.00
2018-04-25T10:17:07.040Z,20960.00
2018-04-25T10:18:07.004Z,33472.00
2018-04-25T10:19:07.002Z,91168.00
2018-04-25T10:20:09.452Z,46080.00
2018-04-25T10:21:06.997Z,30656.00
2018-04-25T10:22:06.996Z,64992.00
2018-04-25T10:23:06.996Z,65088.00
2018-04-25T10:24:06.996Z,60832.00
2018-04-25T10:25:06.999Z,21088.00
2018-04-25T10:26:06.996Z,20544.00
2018-04-25T10:27:06.996Z,20896.00
2018-04-25T10:28:06.997Z,23808.00
2018-04-25T10:29:06.995Z,37152.00
2018-04-25T10:30:06.994Z,36576.00
2018-04-25T10:31:06.994Z,34080.00
2018-04-25T10:32:07.101Z,25440.00
2018-04-25T10:33:06.993Z,24352.00
2018-04-25T10:34:06.992Z,27776.00
2018-04-25T10:35:06.992Z,26048.00
2018-04-25T10:36:06.991Z,66208.00
2018-04-25T10:37:06.988Z,78176.00
2018-04-25T10:38:06.989Z,71520.00
2018-04-25T10:39:06.991Z,20992.00
2018-04-25T10:40:06.991Z,20128.00
2018-04-25T10:41:06.993Z,18624.00
2018-04-25T10:42:06.994Z,17696.00
2018-04-25T10:43:06.992Z,17824.00
2018-04-25T10:44:08.622Z,31968.00
2018-04-25T10:45:06.991Z,20160.00
2018-04-25T10:46:06.990Z,19328.00
2018-04-25T10:47:06.995Z,17056.00
2018-04-25T10:48:06.989Z,15156.00
2018-04-25T10:49:06.986Z,13840.00
2018-04-25T10:50:08.537Z,12868.00
2018-04-25T10:51:06.984Z,12236.00
2018-04-25T10:52:06.988Z,12008.00
2018-04-25T10:53:06.979Z,13492.00
2018-04-25T10:54:06.977Z,18912.00
2018-04-25T10:55:06.976Z,25184.00
2018-04-25T10:56:06.973Z,43872.00
2018-04-25T10:57:06.969Z,25216.00
2018-04-25T10:58:06.967Z,40576.00
2018-04-25T10:59:06.964Z,78176.00
2018-04-25T11:00:06.963Z,29696.00
2018-04-25T11:01:06.960Z,58016.00
2018-04-25T11:02:06.959Z,67552.00
2018-04-25T11:03:06.959Z,80608.00
2018-04-25T11:04:06.959Z,54464.00
2018-04-25T11:05:06.959Z,29696.00
2018-04-25T11:06:06.959Z,79712.00
2018-04-25T11:07:06.961Z,77824.00
2018-04-25T11:08:06.964Z,80256.00
2018-04-25T11:09:06.967Z,26176.00
2018-04-25T11:10:06.974Z,27936.00
2018-04-25T11:11:06.974Z,58048.00
2018-04-25T11:12:06.979Z,75552.00
2018-04-25T11:13:06.980Z,26112.00
2018-04-25T11:14:07.734Z,74816.00
2018-04-25T11:15:06.988Z,61664.00
2018-04-25T11:16:06.993Z,22592.00
2018-04-25T11:17:06.993Z,20320.00
2018-04-25T11:18:06.997Z,18336.00
2018-04-25T11:19:07.000Z,20192.00
2018-04-25T11:20:07.002Z,17632.00
2018-04-25T11:21:07.003Z,18048.00
2018-04-25T11:22:07.004Z,15400.00
2018-04-25T11:23:07.006Z,15968.00
2018-04-25T11:24:07.005Z,40672.00
2018-04-25T11:25:07.005Z,24288.00
2018-04-25T11:26:07.005Z,21856.00
2018-04-25T11:27:07.005Z,73760.00
2018-04-25T11:28:07.005Z,22176.00
2018-04-25T11:29:07.004Z,27200.00
2018-04-25T11:30:07.006Z,22304.00
2018-04-25T11:31:07.005Z,70016.00
2018-04-25T11:32:07.757Z,58624.00
2018-04-25T11:33:07.004Z,74752.00
2018-04-25T11:34:07.004Z,17472.00
2018-04-25T11:35:07.005Z,11356.00
2018-04-25T11:36:07.005Z,9020.00
2018-04-25T11:37:07.004Z,7872.00
2018-04-25T11:38:07.010Z,9216.00
2018-04-25T11:39:07.009Z,14828.00
2018-04-25T11:40:07.005Z,19744.00
2018-04-25T11:41:07.001Z,21088.00
2018-04-25T11:42:07.000Z,17824.00
2018-04-25T11:43:07.000Z,15200.00
2018-04-25T11:44:07.798Z,13204.00
2018-04-25T11:45:06.997Z,14188.00
2018-04-25T11:46:06.993Z,22528.00
2018-04-25T11:47:07.073Z,24000.00
2018-04-25T11:48:06.989Z,17952.00
2018-04-25T11:49:06.987Z,18304.00
2018-04-25T11:50:06.985Z,13428.00
2018-04-25T11:51:06.983Z,13012.00
2018-04-25T11:52:06.983Z,13560.00
2018-04-25T11:53:06.978Z,15168.00
2018-04-25T11:54:06.976Z,18688.00
2018-04-25T11:55:06.976Z,20064.00
2018-04-25T11:56:06.973Z,19232.00
2018-04-25T11:57:06.968Z,16960.00
2018-04-25T11:58:06.978Z,14352.00
2018-04-25T11:59:06.963Z,13444.00
2018-04-25T12:00:06.966Z,11972.00
2018-04-25T12:01:06.958Z,11556.00
2018-04-25T12:02:06.956Z,40544.00
2018-04-25T12:03:06.952Z,13396.00
2018-04-25T12:04:06.949Z,11704.00
2018-04-25T12:05:07.105Z,9360.00
2018-04-25T12:06:06.943Z,9596.00
2018-04-25T12:07:06.941Z,12344.00
2018-04-25T12:08:07.037Z,13392.00
2018-04-25T12:09:06.932Z,15392.00
2018-04-25T12:10:06.929Z,29696.00
2018-04-25T12:11:06.928Z,88224.00
2018-04-25T12:12:06.924Z,85568.00
2018-04-25T12:13:06.939Z,18560.00
2018-04-25T12:14:07.670Z,16704.00
2018-04-25T12:15:06.920Z,14032.00
2018-04-25T12:16:06.919Z,12124.00
2018-04-25T12:17:06.916Z,10084.00
2018-04-25T12:18:06.916Z,8548.00
2018-04-25T12:19:06.914Z,6488.00
2018-04-25T12:20:06.909Z,5052.00
2018-04-25T12:21:06.906Z,3960.00
2018-04-25T12:22:06.904Z,3104.00
2018-04-25T12:23:06.905Z,3076.00